Angoon, Alaska
Current Conditions -  °F | °C
As of 7:30 AM on Thursday 30 Oct 2014 (Local Time) from PAGN Reporting Station
Light Rain Light Rain  
Wind Chill:   Ceiling: 3200
Heat Index:   Visibility: 7mi
Dew Point:   Wind: 3mph
Humidity: 81%   Direction: NA
Pressure: 29.48"   Gusts: NA
Location:  57.5°N, 134.59°W
Report Text: PAGN 301530Z AUTO VRB03KT 7SM -RA FEW024 BKN032 OVC038 07/04 A2948 RMK AO2 TSNO P0002 $
Loading
Personal Weather Stations






























Interactive Weather Map
Tropical Storm Tracking
New forecast layout! Learn more

10-Day Weather Forecast

Advertisements
Track Severe Weather on mobile